createdAt,value
2022-09-02T00:01:54.228Z,0.95
2022-09-02T00:04:22.476Z,0.85
2022-09-02T00:06:49.997Z,0.50
2022-09-02T00:09:18.320Z,0.55
2022-09-02T00:11:45.579Z,0.47
2022-09-02T00:14:14.118Z,0.40
2022-09-02T00:16:41.838Z,0.30
2022-09-02T00:19:08.343Z,0.20
2022-09-02T00:21:34.917Z,0.20
2022-09-02T00:24:02.429Z,0.35
2022-09-02T00:26:28.751Z,0.90
2022-09-02T00:28:56.271Z,0.35
2022-09-02T00:31:23.753Z,0.25
2022-09-02T00:33:51.967Z,0.68
2022-09-02T00:36:18.270Z,0.20
2022-09-02T00:38:44.580Z,0.30
2022-09-02T00:41:11.438Z,0.80
2022-09-02T00:43:40.800Z,0.40
2022-09-02T00:46:07.150Z,0.35
2022-09-02T00:48:34.269Z,0.38
2022-09-02T00:51:02.598Z,0.15
2022-09-02T00:53:29.411Z,0.30
2022-09-02T00:55:56.966Z,0.40
2022-09-02T00:58:29.491Z,0.40
2022-09-02T01:00:57.733Z,0.30
2022-09-02T01:03:25.168Z,0.30
2022-09-02T01:05:52.613Z,0.50
2022-09-02T01:08:21.289Z,0.68
2022-09-02T01:10:48.084Z,0.52
2022-09-02T01:13:15.943Z,0.55
2022-09-02T01:15:44.878Z,0.43
2022-09-02T01:18:16.467Z,0.30
2022-09-02T01:20:42.919Z,0.63
2022-09-02T01:23:09.490Z,0.30
2022-09-02T01:25:41.848Z,0.68
2022-09-02T01:28:09.935Z,0.88
2022-09-02T01:30:38.122Z,0.60
2022-09-02T01:33:04.447Z,0.50
2022-09-02T01:35:31.176Z,0.57
2022-09-02T01:37:58.634Z,1.05
2022-09-02T01:40:26.081Z,0.22
2022-09-02T01:43:06.051Z,0.65
2022-09-02T01:45:32.409Z,0.63
2022-09-02T01:47:58.705Z,0.73
2022-09-02T01:50:25.082Z,0.57
2022-09-02T01:52:51.375Z,0.40
2022-09-02T01:55:17.713Z,0.50
2022-09-02T01:57:44.026Z,0.50
2022-09-02T02:00:11.890Z,0.88
2022-09-02T02:02:38.199Z,0.73
2022-09-02T02:05:04.751Z,0.50
2022-09-02T02:07:31.037Z,0.70
2022-09-02T02:09:57.370Z,0.50
2022-09-02T02:12:23.631Z,0.60
2022-09-02T02:14:49.928Z,0.55
2022-09-02T02:17:16.243Z,0.52
2022-09-02T02:19:43.622Z,0.50
2022-09-02T02:22:10.117Z,0.80
2022-09-02T02:24:36.628Z,0.40
2022-09-02T02:27:02.990Z,0.60
2022-09-02T02:29:29.316Z,1.38
2022-09-02T02:31:55.623Z,1.15
2022-09-02T02:34:22.263Z,1.10
2022-09-02T02:36:48.583Z,0.60
2022-09-02T02:39:14.940Z,0.68
2022-09-02T02:41:44.687Z,0.35
2022-09-02T02:44:11.338Z,0.68
2022-09-02T02:46:37.749Z,0.60
2022-09-02T02:49:05.847Z,0.60
2022-09-02T02:51:32.604Z,1.05
2022-09-02T02:53:59.538Z,0.68
2022-09-02T02:56:25.883Z,0.63
2022-09-02T02:58:52.206Z,0.50
2022-09-02T03:01:18.575Z,1.13
2022-09-02T03:03:44.941Z,0.70
2022-09-02T03:06:11.457Z,0.88
2022-09-02T03:08:37.787Z,0.93
2022-09-02T03:11:05.720Z,0.73
2022-09-02T03:13:32.483Z,1.05
2022-09-02T03:15:59.087Z,0.75
2022-09-02T03:18:25.597Z,0.43
2022-09-02T03:20:51.905Z,1.08
2022-09-02T03:23:18.877Z,0.90
2022-09-02T03:25:46.172Z,0.77
2022-09-02T03:28:12.737Z,0.98
2022-09-02T03:30:39.938Z,1.00
2022-09-02T03:33:06.322Z,0.80
2022-09-02T03:35:34.535Z,0.80
2022-09-02T03:38:01.575Z,0.90
2022-09-02T03:40:28.392Z,0.73
2022-09-02T03:42:59.323Z,0.80
2022-09-02T03:45:26.598Z,0.80
2022-09-02T03:47:54.239Z,1.52
2022-09-02T03:50:25.703Z,0.77
2022-09-02T03:52:53.433Z,1.40
2022-09-02T03:55:19.765Z,0.82
2022-09-02T03:57:46.192Z,1.05
2022-09-02T04:00:14.671Z,1.52
2022-09-02T04:02:42.069Z,0.90
2022-09-02T04:05:11.840Z,1.00
2022-09-02T04:07:42.727Z,1.00
2022-09-02T04:10:13.315Z,1.60
2022-09-02T04:12:39.781Z,0.98
2022-09-02T04:15:06.987Z,0.77
2022-09-02T04:17:35.765Z,0.95
2022-09-02T04:20:02.452Z,1.08
2022-09-02T04:22:28.775Z,0.90
2022-09-02T04:24:55.154Z,0.98
2022-09-02T04:27:21.499Z,1.63
2022-09-02T04:29:47.796Z,0.90
2022-09-02T04:32:14.093Z,1.05
2022-09-02T04:34:40.368Z,1.10
2022-09-02T04:37:06.766Z,1.30
2022-09-02T04:39:33.084Z,1.40
2022-09-02T04:41:59.393Z,1.83
2022-09-02T04:44:25.702Z,1.00
2022-09-02T04:46:52.625Z,1.45
2022-09-02T04:49:19.250Z,1.55
2022-09-02T04:51:45.593Z,1.05
2022-09-02T04:54:11.902Z,1.23
2022-09-02T04:56:38.469Z,1.10
2022-09-02T04:59:04.869Z,1.35
2022-09-02T05:01:33.542Z,1.52
2022-09-02T05:04:00.601Z,1.17
2022-09-02T05:06:27.951Z,1.05
2022-09-02T05:08:59.452Z,1.75
2022-09-02T05:11:29.829Z,1.50
2022-09-02T05:13:57.321Z,1.23
2022-09-02T05:16:29.133Z,1.55
2022-09-02T05:18:56.190Z,1.30
2022-09-02T05:21:23.324Z,1.75
2022-09-02T05:23:50.502Z,1.25
2022-09-02T05:26:20.923Z,1.35
2022-09-02T05:28:47.520Z,1.45
2022-09-02T05:31:15.105Z,1.55
2022-09-02T05:33:42.179Z,1.60
2022-09-02T05:36:12.402Z,1.38
2022-09-02T05:41:09.815Z,2.33
2022-09-02T05:43:37.131Z,1.38
2022-09-02T05:46:08.115Z,1.73
2022-09-02T05:48:53.762Z,1.13
2022-09-02T05:51:20.393Z,1.63
2022-09-02T05:53:46.797Z,1.77
2022-09-02T05:56:13.198Z,1.85
2022-09-02T05:58:39.570Z,1.30
2022-09-02T06:01:10.273Z,1.40
2022-09-02T06:03:37.262Z,1.52
2022-09-02T06:06:06.756Z,1.45
2022-09-02T06:08:34.442Z,1.75
2022-09-02T06:11:03.678Z,2.65
2022-09-02T06:13:30.710Z,1.77
2022-09-02T06:15:57.806Z,1.67
2022-09-02T06:18:24.253Z,1.70
2022-09-02T06:20:52.547Z,1.67
2022-09-02T06:23:18.889Z,1.55
2022-09-02T06:25:46.442Z,1.00
2022-09-02T06:28:13.110Z,0.70
2022-09-02T06:30:40.538Z,1.65
2022-09-02T06:33:07.155Z,1.42
2022-09-02T06:35:37.023Z,1.73
2022-09-02T06:38:03.527Z,1.30
2022-09-02T06:40:29.905Z,1.17
2022-09-02T06:42:56.424Z,2.30
2022-09-02T06:45:24.339Z,1.33
2022-09-02T06:47:51.011Z,2.00
2022-09-02T06:50:17.651Z,1.70
2022-09-02T06:52:43.953Z,2.03
2022-09-02T06:55:12.216Z,1.80
2022-09-02T06:57:38.754Z,1.85
2022-09-02T07:00:07.210Z,1.40
2022-09-02T07:02:33.501Z,2.70
2022-09-02T07:05:15.237Z,1.95
2022-09-02T07:07:42.955Z,1.17
2022-09-02T07:10:11.531Z,2.22
2022-09-02T07:12:38.798Z,1.33
2022-09-02T07:15:05.902Z,2.10
2022-09-02T07:17:32.746Z,1.90
2022-09-02T07:20:00.344Z,1.05
2022-09-02T07:22:27.217Z,1.20
2022-09-02T07:24:53.573Z,1.25
2022-09-02T07:27:20.395Z,1.60
2022-09-02T07:29:48.975Z,1.00
2022-09-02T07:32:15.971Z,1.42
2022-09-02T07:34:42.537Z,1.73
2022-09-02T07:37:11.053Z,1.30
2022-09-02T07:39:37.854Z,1.17
2022-09-02T07:42:04.813Z,1.27
2022-09-02T07:44:34.007Z,1.60
2022-09-02T07:47:00.338Z,1.42
2022-09-02T07:49:28.005Z,2.35
2022-09-02T07:51:54.457Z,1.05
2022-09-02T07:54:23.797Z,1.33
2022-09-02T07:56:50.201Z,1.50
2022-09-02T07:59:16.689Z,1.05
2022-09-02T08:04:15.807Z,0.77
2022-09-02T08:06:42.471Z,0.90
2022-09-02T08:09:12.808Z,0.77
2022-09-02T08:11:40.600Z,1.42
2022-09-02T08:14:08.171Z,0.75
2022-09-02T08:16:35.392Z,0.82
2022-09-02T08:19:01.720Z,0.73
2022-09-02T08:21:28.094Z,1.08
2022-09-02T08:23:54.448Z,0.60
2022-09-02T08:26:21.526Z,0.68
2022-09-02T08:28:47.859Z,0.52
2022-09-02T08:31:14.239Z,0.70
2022-09-02T08:33:40.578Z,0.95
2022-09-02T08:36:11.956Z,1.00
2022-09-02T08:38:38.286Z,0.70
2022-09-02T08:41:14.006Z,0.45
2022-09-02T08:43:41.582Z,0.25
2022-09-02T08:46:11.267Z,0.47
2022-09-02T08:48:59.774Z,0.35
2022-09-02T08:51:26.039Z,0.50
2022-09-02T08:54:20.685Z,0.60
2022-09-02T08:56:48.679Z,0.63
2022-09-02T08:59:15.826Z,0.20
2022-09-02T09:01:56.638Z,0.25
2022-09-02T09:04:31.139Z,0.30
2022-09-02T09:07:09.479Z,0.82
2022-09-02T09:09:41.070Z,0.43
2022-09-02T09:12:15.684Z,1.42
2022-09-02T09:14:55.093Z,0.43
2022-09-02T09:17:26.290Z,0.10
2022-09-02T09:19:54.559Z,0.30
2022-09-02T09:22:24.844Z,0.35
2022-09-02T09:24:51.253Z,0.43
2022-09-02T09:27:18.763Z,0.98
2022-09-02T09:29:45.355Z,0.50
2022-09-02T09:32:21.504Z,0.20
2022-09-02T09:34:57.244Z,0.50
2022-09-02T09:37:46.415Z,0.15
2022-09-02T09:40:18.815Z,0.30
2022-09-02T09:42:49.707Z,0.47
2022-09-02T09:45:33.658Z,0.25
2022-09-02T09:48:12.009Z,0.30
2022-09-02T09:50:38.403Z,0.38
2022-09-02T09:53:27.235Z,0.40
2022-09-02T09:55:53.510Z,0.70
2022-09-02T09:58:20.801Z,0.15
2022-09-02T10:00:47.172Z,0.47
2022-09-02T10:03:23.172Z,1.85
2022-09-02T10:05:53.129Z,0.35
2022-09-02T10:08:21.913Z,0.22
2022-09-02T10:11:01.495Z,0.57
2022-09-02T10:16:12.886Z,0.30
2022-09-02T10:18:44.810Z,0.30
2022-09-02T10:21:18.306Z,0.38
2022-09-02T10:23:55.881Z,0.65
2022-09-02T10:26:31.031Z,0.20
2022-09-02T10:29:08.710Z,0.57
2022-09-02T10:31:44.820Z,0.40
2022-09-02T10:34:17.105Z,0.30
2022-09-02T10:37:02.246Z,0.55
2022-09-02T10:39:54.159Z,0.35
2022-09-02T10:42:20.423Z,0.65
2022-09-02T10:45:02.867Z,0.75
2022-09-02T10:47:41.212Z,0.40
2022-09-02T10:50:30.008Z,0.10
2022-09-02T10:53:09.764Z,0.10
2022-09-02T10:55:37.866Z,0.40
2022-09-02T10:58:07.297Z,0.10
2022-09-02T11:00:36.326Z,0.20
2022-09-02T11:03:13.699Z,0.47
2022-09-02T11:05:43.103Z,0.30
2022-09-02T11:08:14.395Z,0.25
2022-09-02T11:10:53.438Z,0.10
2022-09-02T11:13:24.543Z,0.30
2022-09-02T11:16:06.606Z,0.20
2022-09-02T11:18:51.739Z,0.20
2022-09-02T11:21:36.832Z,0.30
2022-09-02T11:24:15.844Z,0.10
2022-09-02T11:26:46.352Z,0.90
2022-09-02T11:29:31.449Z,0.00
2022-09-02T11:32:01.971Z,0.35
2022-09-02T11:34:34.973Z,0.20
2022-09-02T11:37:04.123Z,0.10
2022-09-02T11:39:54.373Z,0.20
2022-09-02T11:42:28.793Z,0.40
2022-09-02T11:45:31.049Z,0.50
2022-09-02T11:48:03.165Z,0.10
2022-09-02T11:50:34.706Z,0.30
2022-09-02T11:53:20.562Z,0.10
2022-09-02T11:55:49.914Z,0.95
2022-09-02T11:58:35.051Z,0.10
2022-09-02T12:01:28.046Z,0.38
2022-09-02T12:07:09.457Z,0.00
2022-09-02T12:09:47.813Z,0.40
2022-09-02T12:12:34.285Z,0.20
2022-09-02T12:15:02.425Z,0.10
2022-09-02T12:17:37.167Z,0.40
2022-09-02T12:20:04.625Z,0.57
2022-09-02T12:22:38.703Z,0.15
2022-09-02T12:25:27.000Z,0.10
2022-09-02T12:28:30.415Z,0.10
2022-09-02T12:31:01.653Z,0.17
2022-09-02T12:33:38.323Z,0.08
2022-09-02T12:36:05.630Z,0.75
2022-09-02T12:38:36.309Z,0.10
2022-09-02T12:41:05.818Z,0.00
2022-09-02T12:43:50.530Z,0.20
2022-09-02T12:46:17.490Z,0.05
2022-09-02T12:49:03.662Z,0.15
2022-09-02T12:52:05.666Z,0.00
2022-09-02T12:54:36.455Z,0.05
2022-09-02T12:57:03.780Z,0.50
2022-09-02T12:59:31.559Z,0.20
2022-09-02T13:02:06.775Z,0.10
2022-09-02T13:04:46.159Z,0.25
2022-09-02T13:07:34.736Z,0.10
2022-09-02T13:10:09.090Z,0.00
2022-09-02T13:12:47.607Z,0.10
2022-09-02T13:15:23.346Z,0.32
2022-09-02T13:17:52.973Z,0.00
2022-09-02T13:20:37.441Z,0.20
2022-09-02T13:23:16.631Z,1.15
2022-09-02T13:26:02.223Z,0.20
2022-09-02T13:28:29.015Z,0.00
2022-09-02T13:31:22.086Z,0.47
2022-09-02T13:33:59.524Z,0.20
2022-09-02T13:36:34.680Z,0.10
2022-09-02T13:39:20.791Z,0.32
2022-09-02T13:41:47.730Z,0.28
2022-09-02T13:44:29.431Z,0.10
2022-09-02T13:47:12.969Z,0.08
2022-09-02T13:49:42.941Z,0.13
2022-09-02T13:52:17.083Z,0.30
2022-09-02T13:54:45.753Z,0.00
2022-09-02T13:57:13.902Z,0.32
2022-09-02T13:59:50.483Z,0.10
2022-09-02T14:02:18.359Z,0.30
2022-09-02T14:04:44.966Z,0.03
2022-09-02T14:07:12.422Z,0.03
2022-09-02T14:09:38.998Z,0.10
2022-09-02T14:12:06.610Z,0.50
2022-09-02T14:14:33.384Z,0.30
2022-09-02T14:17:19.359Z,0.47
2022-09-02T14:19:45.651Z,0.22
2022-09-02T14:22:26.671Z,0.30
2022-09-02T14:24:53.130Z,0.30
2022-09-02T14:27:20.584Z,0.25
2022-09-02T14:29:47.919Z,0.03
2022-09-02T14:32:16.074Z,0.90
2022-09-02T14:34:43.637Z,0.43
2022-09-02T14:37:22.113Z,0.20
2022-09-02T14:40:14.977Z,0.10
2022-09-02T14:42:45.965Z,0.57
2022-09-02T14:45:12.669Z,0.10
2022-09-02T14:47:39.671Z,0.00
2022-09-02T14:50:09.716Z,0.20
2022-09-02T14:52:38.473Z,0.15
2022-09-02T14:55:06.347Z,0.22
2022-09-02T14:57:35.345Z,0.20
2022-09-02T15:00:08.543Z,0.10
2022-09-02T15:02:35.772Z,0.10
2022-09-02T15:05:03.829Z,0.30
2022-09-02T15:07:30.570Z,0.25
2022-09-02T15:09:56.932Z,0.10
2022-09-02T15:12:25.401Z,0.10
2022-09-02T15:14:52.106Z,0.20
2022-09-02T15:17:18.847Z,0.10
2022-09-02T15:19:45.143Z,0.08
2022-09-02T15:22:11.727Z,0.10
2022-09-02T15:24:38.248Z,0.38
2022-09-02T15:27:04.650Z,0.10
2022-09-02T15:29:31.038Z,0.20
2022-09-02T15:31:58.624Z,0.08
2022-09-02T15:34:26.087Z,0.10
2022-09-02T15:36:55.231Z,0.30
2022-09-02T15:39:22.782Z,0.28
2022-09-02T15:41:50.141Z,0.10
2022-09-02T15:44:17.304Z,0.10
2022-09-02T15:46:44.971Z,0.00
2022-09-02T15:49:13.729Z,0.20
2022-09-02T15:51:44.677Z,0.25
2022-09-02T15:54:11.748Z,0.10
2022-09-02T15:56:43.622Z,0.00
2022-09-02T15:59:14.183Z,0.10
2022-09-02T16:01:41.394Z,0.22
2022-09-02T16:04:08.096Z,0.00
2022-09-02T16:06:36.325Z,0.35
2022-09-02T16:09:02.804Z,0.10
2022-09-02T16:11:29.524Z,0.00
2022-09-02T16:13:55.794Z,0.05
2022-09-02T16:16:22.549Z,0.08
2022-09-02T16:18:50.533Z,0.10
2022-09-02T16:21:17.510Z,0.10
2022-09-02T16:23:44.211Z,0.10
2022-09-02T16:26:12.263Z,0.10
2022-09-02T16:28:39.347Z,0.00
2022-09-02T16:31:06.621Z,0.00
2022-09-02T16:33:35.022Z,0.00
2022-09-02T16:36:01.833Z,0.30
2022-09-02T16:38:28.184Z,0.00
2022-09-02T16:40:55.469Z,0.10
2022-09-02T16:43:22.096Z,0.00
2022-09-02T16:45:49.018Z,0.10
2022-09-02T16:48:15.373Z,0.70
2022-09-02T16:50:41.663Z,0.20
2022-09-02T16:53:08.828Z,0.00
2022-09-02T16:55:39.675Z,0.10
2022-09-02T16:58:10.408Z,0.00
2022-09-02T17:00:40.835Z,0.00
2022-09-02T17:03:08.080Z,0.20
2022-09-02T17:05:34.506Z,0.30
2022-09-02T17:08:01.781Z,0.40
2022-09-02T17:10:29.345Z,0.15
2022-09-02T17:12:56.173Z,0.60
2022-09-02T17:15:22.695Z,0.35
2022-09-02T17:17:49.027Z,0.10
2022-09-02T17:20:15.407Z,0.10
2022-09-02T17:22:41.902Z,0.22
2022-09-02T17:25:08.341Z,0.10
2022-09-02T17:27:36.359Z,0.20
2022-09-02T17:30:03.699Z,0.15
2022-09-02T17:32:29.993Z,0.00
2022-09-02T17:34:56.367Z,0.43
2022-09-02T17:37:22.673Z,0.00
2022-09-02T17:39:49.702Z,1.45
2022-09-02T17:42:16.566Z,0.13
2022-09-02T17:44:42.930Z,0.00
2022-09-02T17:47:15.418Z,0.10
2022-09-02T17:49:44.013Z,0.00
2022-09-02T17:52:11.371Z,0.10
2022-09-02T17:54:38.405Z,0.00
2022-09-02T17:57:09.773Z,0.25
2022-09-02T17:59:45.270Z,0.75
2022-09-02T18:02:14.536Z,0.00
2022-09-02T18:05:03.490Z,0.45
2022-09-02T18:07:40.679Z,0.27
2022-09-02T18:10:06.987Z,0.00
2022-09-02T18:12:35.758Z,0.10
2022-09-02T18:15:04.683Z,0.08
2022-09-02T18:17:35.085Z,0.20
2022-09-02T18:20:20.104Z,0.00
2022-09-02T18:22:52.631Z,0.30
2022-09-02T18:25:24.064Z,2.13
2022-09-02T18:28:06.473Z,0.17
2022-09-02T18:30:43.780Z,0.10
2022-09-02T18:33:30.853Z,0.00
2022-09-02T18:36:04.842Z,0.10
2022-09-02T18:38:38.161Z,0.15
2022-09-02T18:41:07.773Z,0.90
2022-09-02T18:43:40.934Z,0.00
2022-09-02T18:46:08.782Z,0.00
2022-09-02T18:48:36.103Z,0.57
2022-09-02T18:51:07.129Z,0.03
2022-09-02T18:53:36.513Z,0.15
2022-09-02T18:56:05.880Z,0.15
2022-09-02T18:58:50.869Z,0.20
2022-09-02T19:01:27.535Z,0.03
2022-09-02T19:03:53.917Z,0.43
2022-09-02T19:06:24.235Z,0.00
2022-09-02T19:08:56.509Z,0.00
2022-09-02T19:11:24.073Z,0.08
2022-09-02T19:13:51.388Z,0.30
2022-09-02T19:16:19.032Z,0.15
2022-09-02T19:18:45.577Z,0.00
2022-09-02T19:21:14.931Z,0.08
2022-09-02T19:23:41.621Z,0.00
2022-09-02T19:26:08.143Z,0.00
2022-09-02T19:28:34.803Z,0.10
2022-09-02T19:31:02.242Z,0.50
2022-09-02T19:33:32.207Z,0.00
2022-09-02T19:38:26.378Z,0.03
2022-09-02T19:40:53.334Z,0.50
2022-09-02T19:43:19.823Z,0.10
2022-09-02T19:45:48.853Z,0.30
2022-09-02T19:48:15.349Z,0.37
2022-09-02T19:50:42.872Z,0.00
2022-09-02T19:53:10.713Z,0.00
2022-09-02T19:55:37.428Z,0.10
2022-09-02T19:58:04.357Z,0.30
2022-09-02T20:00:33.199Z,0.10
2022-09-02T20:02:59.754Z,0.00
2022-09-02T20:05:26.150Z,0.63
2022-09-02T20:07:53.761Z,0.22
2022-09-02T20:10:26.884Z,0.20
2022-09-02T20:12:54.610Z,0.00
2022-09-02T20:15:20.963Z,0.10
2022-09-02T20:17:47.321Z,0.15
2022-09-02T20:20:18.525Z,0.25
2022-09-02T20:22:47.179Z,0.20
2022-09-02T20:25:13.876Z,0.20
2022-09-02T20:28:12.759Z,0.60
2022-09-02T20:30:42.524Z,0.20
2022-09-02T20:33:14.500Z,0.00
2022-09-02T20:35:40.827Z,0.80
2022-09-02T20:38:25.701Z,0.05
2022-09-02T20:40:53.034Z,0.08
2022-09-02T20:43:38.784Z,0.52
2022-09-02T20:46:11.198Z,0.10
2022-09-02T20:48:43.751Z,0.10
2022-09-02T20:51:12.462Z,0.35
2022-09-02T20:53:56.581Z,0.30
2022-09-02T20:56:26.573Z,0.10
2022-09-02T20:58:53.491Z,0.63
2022-09-02T21:01:28.238Z,0.10
2022-09-02T21:04:01.661Z,0.10
2022-09-02T21:06:31.650Z,0.10
2022-09-02T21:11:26.824Z,0.10
2022-09-02T21:13:56.054Z,0.00
2022-09-02T21:16:28.161Z,0.05
2022-09-02T21:19:07.462Z,0.00
2022-09-02T21:21:40.415Z,0.10
2022-09-02T21:24:25.111Z,0.00
2022-09-02T21:26:51.493Z,0.52
2022-09-02T21:29:37.525Z,0.00
2022-09-02T21:32:10.435Z,0.00
2022-09-02T21:34:39.421Z,0.10
2022-09-02T21:37:06.965Z,0.22
2022-09-02T21:39:36.703Z,0.03
2022-09-02T21:42:24.536Z,0.25
2022-09-02T21:45:20.109Z,0.00
2022-09-02T21:48:10.545Z,0.22
2022-09-02T21:50:43.864Z,0.20
2022-09-02T21:53:19.227Z,0.00
2022-09-02T21:56:04.427Z,0.00
2022-09-02T21:58:40.051Z,0.13
2022-09-02T22:01:09.154Z,0.30
2022-09-02T22:03:42.843Z,0.28
2022-09-02T22:06:09.107Z,0.00
2022-09-02T22:08:44.051Z,0.10
2022-09-02T22:11:15.011Z,0.10
2022-09-02T22:13:42.046Z,0.10
2022-09-02T22:16:12.916Z,0.00
2022-09-02T22:18:49.617Z,0.28
2022-09-02T22:21:38.084Z,0.30
2022-09-02T22:24:04.489Z,0.20
2022-09-02T22:26:36.943Z,0.03
2022-09-02T22:29:06.270Z,0.10
2022-09-02T22:31:35.816Z,0.52
2022-09-02T22:34:03.753Z,0.00
2022-09-02T22:36:49.675Z,0.10
2022-09-02T22:39:17.159Z,0.75
2022-09-02T22:41:56.727Z,0.50
2022-09-02T22:45:04.906Z,0.30
2022-09-02T22:47:52.063Z,0.10
2022-09-02T22:50:39.925Z,0.10
2022-09-02T22:53:06.226Z,0.00
2022-09-02T22:55:35.293Z,0.00
2022-09-02T22:58:04.627Z,0.13
2022-09-02T23:00:35.794Z,0.43
2022-09-02T23:03:17.589Z,0.10
2022-09-02T23:06:06.083Z,0.15
2022-09-02T23:08:36.965Z,0.20
2022-09-02T23:11:13.150Z,0.20
2022-09-02T23:13:53.755Z,0.20
2022-09-02T23:16:20.080Z,0.10
2022-09-02T23:18:55.738Z,0.90
2022-09-02T23:21:32.724Z,0.35
2022-09-02T23:24:06.349Z,0.40
2022-09-02T23:26:43.019Z,0.55
2022-09-02T23:29:19.776Z,0.55
2022-09-02T23:31:46.038Z,0.32
2022-09-02T23:34:15.113Z,0.70
2022-09-02T23:36:52.168Z,3.03
2022-09-02T23:39:21.616Z,0.40
2022-09-02T23:41:47.953Z,0.22
2022-09-02T23:44:14.318Z,0.35
2022-09-02T23:46:51.605Z,0.77
2022-09-02T23:49:19.023Z,0.50
2022-09-02T23:52:07.840Z,0.55
2022-09-02T23:54:54.401Z,0.52
2022-09-02T23:57:35.982Z,0.70
